sensor_id;sensor_type;location;lat;lon;timestamp;pressure;altitude;pressure_sealevel;temperature;humidity
46023;BME280;31756;47.936;16.224;2023-01-29T00:01:53;99592.66;;;0.53;100.00
46023;BME280;31756;47.936;16.224;2023-01-29T00:04:19;99589.47;;;0.13;100.00
46023;BME280;31756;47.936;16.224;2023-01-29T00:06:45;99600.19;;;0.07;100.00
46023;BME280;31756;47.936;16.224;2023-01-29T00:09:10;99589.81;;;-0.01;100.00
46023;BME280;31756;47.936;16.224;2023-01-29T00:11:37;99592.88;;;-0.08;100.00
46023;BME280;31756;47.936;16.224;2023-01-29T00:14:02;99589.28;;;-0.14;100.00
46023;BME280;31756;47.936;16.224;2023-01-29T00:16:28;99583.50;;;-0.12;100.00
46023;BME280;31756;47.936;16.224;2023-01-29T00:18:53;99576.69;;;-0.14;100.00
46023;BME280;31756;47.936;16.224;2023-01-29T00:21:19;99578.91;;;-0.22;100.00
46023;BME280;31756;47.936;16.224;2023-01-29T00:23:46;99579.41;;;-0.30;100.00
46023;BME280;31756;47.936;16.224;2023-01-29T00:26:12;99589.16;;;-0.38;100.00
46023;BME280;31756;47.936;16.224;2023-01-29T00:28:42;99589.81;;;-0.43;100.00
46023;BME280;31756;47.936;16.224;2023-01-29T00:31:15;99598.53;;;-0.35;100.00
46023;BME280;31756;47.936;16.224;2023-01-29T00:33:42;99604.66;;;-0.29;100.00
46023;BME280;31756;47.936;16.224;2023-01-29T00:36:09;99604.25;;;-0.39;100.00
46023;BME280;31756;47.936;16.224;2023-01-29T00:38:35;99602.88;;;-0.31;100.00
46023;BME280;31756;47.936;16.224;2023-01-29T00:41:05;99612.47;;;-0.43;100.00
46023;BME280;31756;47.936;16.224;2023-01-29T00:43:50;99614.81;;;-0.48;100.00
46023;BME280;31756;47.936;16.224;2023-01-29T00:46:34;99614.13;;;-0.44;100.00
46023;BME280;31756;47.936;16.224;2023-01-29T00:48:59;99614.69;;;-0.51;100.00
46023;BME280;31756;47.936;16.224;2023-01-29T00:51:24;99617.06;;;-0.54;100.00
46023;BME280;31756;47.936;16.224;2023-01-29T00:53:50;99616.69;;;-0.63;100.00
46023;BME280;31756;47.936;16.224;2023-01-29T00:56:15;99621.88;;;-0.60;100.00
46023;BME280;31756;47.936;16.224;2023-01-29T00:58:42;99618.28;;;-0.65;100.00
46023;BME280;31756;47.936;16.224;2023-01-29T01:01:07;99612.09;;;-0.73;100.00
46023;BME280;31756;47.936;16.224;2023-01-29T01:03:32;99620.81;;;-0.65;100.00
46023;BME280;31756;47.936;16.224;2023-01-29T01:06:07;99627.63;;;-0.63;100.00
46023;BME280;31756;47.936;16.224;2023-01-29T01:08:33;99625.25;;;-0.60;100.00
46023;BME280;31756;47.936;16.224;2023-01-29T01:11:18;99624.78;;;-0.70;100.00
46023;BME280;31756;47.936;16.224;2023-01-29T01:13:44;99627.94;;;-0.55;100.00
46023;BME280;31756;47.936;16.224;2023-01-29T01:16:12;99625.97;;;-0.62;100.00
46023;BME280;31756;47.936;16.224;2023-01-29T01:18:38;99628.38;;;-0.65;100.00
46023;BME280;31756;47.936;16.224;2023-01-29T01:21:04;99625.66;;;-0.70;100.00
46023;BME280;31756;47.936;16.224;2023-01-29T01:23:30;99624.03;;;-0.68;100.00
46023;BME280;31756;47.936;16.224;2023-01-29T01:25:55;99620.03;;;-0.64;100.00
46023;BME280;31756;47.936;16.224;2023-01-29T01:28:21;99621.69;;;-0.65;100.00
46023;BME280;31756;47.936;16.224;2023-01-29T01:30:46;99625.25;;;-0.60;100.00
46023;BME280;31756;47.936;16.224;2023-01-29T01:33:12;99624.44;;;-0.59;100.00
46023;BME280;31756;47.936;16.224;2023-01-29T01:35:38;99618.72;;;-0.55;100.00
46023;BME280;31756;47.936;16.224;2023-01-29T01:38:03;99618.22;;;-0.46;100.00
46023;BME280;31756;47.936;16.224;2023-01-29T01:40:29;99616.38;;;-0.50;100.00
46023;BME280;31756;47.936;16.224;2023-01-29T01:42:55;99621.72;;;-0.63;100.00
46023;BME280;31756;47.936;16.224;2023-01-29T01:50:36;99611.22;;;-0.74;100.00
46023;BME280;31756;47.936;16.224;2023-01-29T01:53:07;99613.97;;;-0.68;100.00
46023;BME280;31756;47.936;16.224;2023-01-29T01:55:34;99621.09;;;-0.78;100.00
46023;BME280;31756;47.936;16.224;2023-01-29T02:00:53;99629.03;;;-0.69;100.00
46023;BME280;31756;47.936;16.224;2023-01-29T02:03:19;99623.75;;;-0.75;100.00
46023;BME280;31756;47.936;16.224;2023-01-29T02:06:04;99631.97;;;-0.79;100.00
46023;BME280;31756;47.936;16.224;2023-01-29T02:08:56;99633.81;;;-0.75;100.00
46023;BME280;31756;47.936;16.224;2023-01-29T02:11:42;99636.41;;;-0.74;100.00
46023;BME280;31756;47.936;16.224;2023-01-29T02:14:08;99631.28;;;-0.75;100.00
46023;BME280;31756;47.936;16.224;2023-01-29T02:16:34;99635.03;;;-0.86;100.00
46023;BME280;31756;47.936;16.224;2023-01-29T02:19:02;99640.59;;;-0.94;100.00
46023;BME280;31756;47.936;16.224;2023-01-29T02:21:35;99638.41;;;-0.86;100.00
46023;BME280;31756;47.936;16.224;2023-01-29T02:24:20;99639.13;;;-0.88;100.00
46023;BME280;31756;47.936;16.224;2023-01-29T02:29:22;99640.94;;;-0.86;100.00
46023;BME280;31756;47.936;16.224;2023-01-29T02:37:38;99643.31;;;-1.08;100.00
46023;BME280;31756;47.936;16.224;2023-01-29T02:42:52;99645.91;;;-1.07;100.00
46023;BME280;31756;47.936;16.224;2023-01-29T02:45:31;99646.69;;;-1.08;100.00
46023;BME280;31756;47.936;16.224;2023-01-29T02:48:00;99646.69;;;-1.08;100.00
46023;BME280;31756;47.936;16.224;2023-01-29T02:50:49;99644.72;;;-1.15;100.00
46023;BME280;31756;47.936;16.224;2023-01-29T02:53:40;99643.19;;;-1.11;100.00
46023;BME280;31756;47.936;16.224;2023-01-29T02:58:54;99636.75;;;-1.05;100.00
46023;BME280;31756;47.936;16.224;2023-01-29T03:01:35;99647.56;;;-1.07;100.00
46023;BME280;31756;47.936;16.224;2023-01-29T03:04:08;99651.53;;;-1.12;100.00
46023;BME280;31756;47.936;16.224;2023-01-29T03:06:40;99648.69;;;-1.20;100.00
46023;BME280;31756;47.936;16.224;2023-01-29T03:12:12;99651.78;;;-1.25;100.00
46023;BME280;31756;47.936;16.224;2023-01-29T03:14:54;99650.25;;;-1.22;100.00
46023;BME280;31756;47.936;16.224;2023-01-29T03:17:39;99657.44;;;-1.12;100.00
46023;BME280;31756;47.936;16.224;2023-01-29T03:20:07;99660.53;;;-1.17;100.00
46023;BME280;31756;47.936;16.224;2023-01-29T03:22:38;99660.59;;;-1.16;100.00
46023;BME280;31756;47.936;16.224;2023-01-29T03:25:04;99656.56;;;-1.12;100.00
46023;BME280;31756;47.936;16.224;2023-01-29T03:27:52;99657.44;;;-1.12;100.00
46023;BME280;31756;47.936;16.224;2023-01-29T03:30:43;99653.47;;;-1.07;100.00
46023;BME280;31756;47.936;16.224;2023-01-29T03:36:28;99650.06;;;-1.26;100.00
46023;BME280;31756;47.936;16.224;2023-01-29T03:39:05;99651.03;;;-1.23;100.00
46023;BME280;31756;47.936;16.224;2023-01-29T03:45:05;99652.31;;;-1.32;100.00
46023;BME280;31756;47.936;16.224;2023-01-29T03:52:18;99656.91;;;-1.24;100.00
46023;BME280;31756;47.936;16.224;2023-01-29T03:57:39;99645.75;;;-1.29;100.00
46023;BME280;31756;47.936;16.224;2023-01-29T04:00:17;99645.75;;;-1.29;100.00
46023;BME280;31756;47.936;16.224;2023-01-29T04:05:24;99643.91;;;-0.55;100.00
46023;BME280;31756;47.936;16.224;2023-01-29T04:08:25;99631.97;;;-0.79;100.00
46023;BME280;31756;47.936;16.224;2023-01-29T04:10:53;99627.59;;;-0.83;100.00
46023;BME280;31756;47.936;16.224;2023-01-29T04:13:20;99618.97;;;-0.49;100.00
46023;BME280;31756;47.936;16.224;2023-01-29T04:15:55;99623.63;;;-0.37;100.00
46023;BME280;31756;47.936;16.224;2023-01-29T04:18:57;99622.34;;;-0.48;100.00
46023;BME280;31756;47.936;16.224;2023-01-29T04:21:28;99623.72;;;-0.56;100.00
46023;BME280;31756;47.936;16.224;2023-01-29T04:23:56;99614.16;;;-0.63;100.00
46023;BME280;31756;47.936;16.224;2023-01-29T04:32:10;99612.47;;;-0.64;100.00
46023;BME280;31756;47.936;16.224;2023-01-29T04:34:53;99606.25;;;-0.72;100.00
46023;BME280;31756;47.936;16.224;2023-01-29T04:39:53;99613.97;;;-0.68;100.00
46023;BME280;31756;47.936;16.224;2023-01-29T04:42:30;99606.88;;;-0.57;100.00
46023;BME280;31756;47.936;16.224;2023-01-29T04:45:02;99597.84;;;-0.52;100.00
46023;BME280;31756;47.936;16.224;2023-01-29T04:47:43;99602.63;;;-0.58;100.00
46023;BME280;31756;47.936;16.224;2023-01-29T04:50:14;99607.66;;;-0.37;100.00
46023;BME280;31756;47.936;16.224;2023-01-29T04:55:20;99612.81;;;-0.14;100.00
46023;BME280;31756;47.936;16.224;2023-01-29T05:00:20;99615.72;;;-0.46;100.00
46023;BME280;31756;47.936;16.224;2023-01-29T05:02:48;99627.00;;;-0.78;100.00
46023;BME280;31756;47.936;16.224;2023-01-29T05:05:15;99631.06;;;-0.81;100.00
46023;BME280;31756;47.936;16.224;2023-01-29T05:07:43;99638.25;;;-0.89;100.00
46023;BME280;31756;47.936;16.224;2023-01-29T05:10:09;99639.16;;;-1.08;100.00
46023;BME280;31756;47.936;16.224;2023-01-29T05:12:36;99632.59;;;-1.04;100.00
46023;BME280;31756;47.936;16.224;2023-01-29T05:15:03;99639.28;;;-1.05;100.00
46023;BME280;31756;47.936;16.224;2023-01-29T05:17:31;99630.47;;;-1.14;100.00
46023;BME280;31756;47.936;16.224;2023-01-29T05:19:57;99629.34;;;-1.21;100.00
46023;BME280;31756;47.936;16.224;2023-01-29T05:22:23;99632.00;;;-1.18;100.00
46023;BME280;31756;47.936;16.224;2023-01-29T05:24:49;99625.19;;;-1.20;100.00
46023;BME280;31756;47.936;16.224;2023-01-29T05:27:16;99629.88;;;-1.28;100.00
46023;BME280;31756;47.936;16.224;2023-01-29T05:30:01;99636.69;;;-1.25;100.00
46023;BME280;31756;47.936;16.224;2023-01-29T05:32:26;99635.38;;;-1.36;100.00
46023;BME280;31756;47.936;16.224;2023-01-29T05:34:52;99635.31;;;-1.38;100.00
46023;BME280;31756;47.936;16.224;2023-01-29T05:37:18;99632.00;;;-1.37;100.00
46023;BME280;31756;47.936;16.224;2023-01-29T05:39:43;99633.00;;;-1.33;100.00
46023;BME280;31756;47.936;16.224;2023-01-29T05:42:09;99626.56;;;-1.46;100.00
46023;BME280;31756;47.936;16.224;2023-01-29T05:44:34;99625.16;;;-1.40;100.00
46023;BME280;31756;47.936;16.224;2023-01-29T05:47:00;99625.03;;;-1.43;100.00
46023;BME280;31756;47.936;16.224;2023-01-29T05:49:27;99618.34;;;-1.42;100.00
46023;BME280;31756;47.936;16.224;2023-01-29T05:51:53;99628.13;;;-1.48;100.00
46023;BME280;31756;47.936;16.224;2023-01-29T05:54:18;99620.75;;;-1.45;100.00
46023;BME280;31756;47.936;16.224;2023-01-29T05:56:43;99620.75;;;-1.45;100.00
46023;BME280;31756;47.936;16.224;2023-01-29T05:59:09;99624.72;;;-1.50;100.00
46023;BME280;31756;47.936;16.224;2023-01-29T06:01:35;99622.56;;;-1.60;100.00
46023;BME280;31756;47.936;16.224;2023-01-29T06:04:00;99627.47;;;-1.63;100.00
46023;BME280;31756;47.936;16.224;2023-01-29T06:06:26;99621.34;;;-1.68;100.00
46023;BME280;31756;47.936;16.224;2023-01-29T06:08:51;99621.31;;;-1.70;100.00
46023;BME280;31756;47.936;16.224;2023-01-29T06:11:17;99627.16;;;-1.69;100.00
46023;BME280;31756;47.936;16.224;2023-01-29T06:13:43;99625.47;;;-1.70;100.00
46023;BME280;31756;47.936;16.224;2023-01-29T06:16:09;99617.94;;;-1.70;100.00
46023;BME280;31756;47.936;16.224;2023-01-29T06:18:35;99614.03;;;-1.64;100.00
46023;BME280;31756;47.936;16.224;2023-01-29T06:21:01;99602.78;;;-1.72;100.00
46023;BME280;31756;47.936;16.224;2023-01-29T06:23:27;99598.69;;;-1.70;100.00
46023;BME280;31756;47.936;16.224;2023-01-29T06:25:52;99600.19;;;-1.73;100.00
46023;BME280;31756;47.936;16.224;2023-01-29T06:28:18;99603.06;;;-1.66;100.00
46023;BME280;31756;47.936;16.224;2023-01-29T06:30:43;99593.22;;;-1.61;100.00
46023;BME280;31756;47.936;16.224;2023-01-29T06:33:09;99597.00;;;-1.69;100.00
46023;BME280;31756;47.936;16.224;2023-01-29T06:35:34;99598.09;;;-1.64;100.00
46023;BME280;31756;47.936;16.224;2023-01-29T06:38:00;99602.19;;;-1.66;100.00
46023;BME280;31756;47.936;16.224;2023-01-29T06:40:25;99599.53;;;-1.69;100.00
46023;BME280;31756;47.936;16.224;2023-01-29T06:42:51;99602.25;;;-1.65;100.00
46023;BME280;31756;47.936;16.224;2023-01-29T06:45:16;99601.78;;;-1.75;100.00
46023;BME280;31756;47.936;16.224;2023-01-29T06:47:41;99606.06;;;-1.73;100.00
46023;BME280;31756;47.936;16.224;2023-01-29T06:50:07;99608.00;;;-1.67;100.00
46023;BME280;31756;47.936;16.224;2023-01-29T06:52:33;99604.56;;;-1.69;100.00
46023;BME280;31756;47.936;16.224;2023-01-29T06:55:01;99606.84;;;-1.74;100.00
46023;BME280;31756;47.936;16.224;2023-01-29T06:57:30;99604.41;;;-1.72;100.00
46023;BME280;31756;47.936;16.224;2023-01-29T06:59:55;99616.84;;;-1.75;100.00
46023;BME280;31756;47.936;16.224;2023-01-29T07:02:20;99625.72;;;-1.83;100.00
46023;BME280;31756;47.936;16.224;2023-01-29T07:04:46;99622.22;;;-1.68;100.00
46023;BME280;31756;47.936;16.224;2023-01-29T07:07:12;99614.91;;;-1.63;100.00
46023;BME280;31756;47.936;16.224;2023-01-29T07:09:40;99611.06;;;-1.74;100.00
46023;BME280;31756;47.936;16.224;2023-01-29T07:12:07;99610.41;;;-1.70;100.00
46023;BME280;31756;47.936;16.224;2023-01-29T07:14:33;99618.19;;;-1.64;100.00
46023;BME280;31756;47.936;16.224;2023-01-29T07:16:58;99618.31;;;-1.80;100.00
46023;BME280;31756;47.936;16.224;2023-01-29T07:19:24;99626.06;;;-1.94;100.00
46023;BME280;31756;47.936;16.224;2023-01-29T07:21:49;99626.72;;;-1.98;100.00
46023;BME280;31756;47.936;16.224;2023-01-29T07:24:15;99622.69;;;-1.94;100.00
46023;BME280;31756;47.936;16.224;2023-01-29T07:26:40;99622.47;;;-1.99;100.00
46023;BME280;31756;47.936;16.224;2023-01-29T07:29:07;99619.84;;;-2.02;100.00
46023;BME280;31756;47.936;16.224;2023-01-29T07:31:32;99617.41;;;-2.00;100.00
46023;BME280;31756;47.936;16.224;2023-01-29T07:33:58;99622.56;;;-1.97;100.00
46023;BME280;31756;47.936;16.224;2023-01-29T07:36:23;99625.00;;;-1.99;100.00
46023;BME280;31756;47.936;16.224;2023-01-29T07:38:49;99622.00;;;-1.92;100.00
46023;BME280;31756;47.936;16.224;2023-01-29T07:41:14;99611.06;;;-1.92;100.00
46023;BME280;31756;47.936;16.224;2023-01-29T07:43:43;99606.91;;;-1.92;100.00
46023;BME280;31756;47.936;16.224;2023-01-29T07:46:09;99612.97;;;-1.87;100.00
46023;BME280;31756;47.936;16.224;2023-01-29T07:48:35;99613.84;;;-1.86;100.00
46023;BME280;31756;47.936;16.224;2023-01-29T07:51:00;99613.16;;;-1.83;100.00
46023;BME280;31756;47.936;16.224;2023-01-29T07:53:28;99614.91;;;-1.63;100.00
46023;BME280;31756;47.936;16.224;2023-01-29T07:55:53;99613.13;;;-1.47;100.00
46023;BME280;31756;47.936;16.224;2023-01-29T07:58:19;99603.84;;;-1.67;100.00
46023;BME280;31756;47.936;16.224;2023-01-29T08:00:45;99601.47;;;-1.64;100.00
46023;BME280;31756;47.936;16.224;2023-01-29T08:03:11;99600.91;;;-1.76;100.00
46023;BME280;31756;47.936;16.224;2023-01-29T08:05:37;99606.81;;;-1.75;100.00
46023;BME280;31756;47.936;16.224;2023-01-29T08:08:03;99609.75;;;-1.84;100.00
46023;BME280;31756;47.936;16.224;2023-01-29T08:10:28;99614.97;;;-1.62;100.00
46023;BME280;31756;47.936;16.224;2023-01-29T08:12:55;99608.31;;;-1.79;100.00
46023;BME280;31756;47.936;16.224;2023-01-29T08:15:20;99613.16;;;-1.83;100.00
46023;BME280;31756;47.936;16.224;2023-01-29T08:17:46;99612.84;;;-1.90;100.00
46023;BME280;31756;47.936;16.224;2023-01-29T08:20:11;99611.31;;;-1.68;100.00
46023;BME280;31756;47.936;16.224;2023-01-29T08:22:37;99622.09;;;-1.71;100.00
46023;BME280;31756;47.936;16.224;2023-01-29T08:25:02;99620.06;;;-1.60;100.00
46023;BME280;31756;47.936;16.224;2023-01-29T08:27:28;99621.44;;;-1.48;100.00
46023;BME280;31756;47.936;16.224;2023-01-29T08:29:53;99614.44;;;-1.35;100.00
46023;BME280;31756;47.936;16.224;2023-01-29T08:32:18;99613.78;;;-1.51;100.00
46023;BME280;31756;47.936;16.224;2023-01-29T08:34:44;99617.94;;;-1.51;100.00
46023;BME280;31756;47.936;16.224;2023-01-29T08:37:10;99616.25;;;-1.33;100.00
46023;BME280;31756;47.936;16.224;2023-01-29T08:39:35;99617.16;;;-1.31;100.00
46023;BME280;31756;47.936;16.224;2023-01-29T08:42:01;99617.84;;;-1.16;100.00
46023;BME280;31756;47.936;16.224;2023-01-29T08:44:26;99613.88;;;-1.11;100.00
46023;BME280;31756;47.936;16.224;2023-01-29T08:46:52;99622.53;;;-1.23;100.00
46023;BME280;31756;47.936;16.224;2023-01-29T08:49:17;99628.09;;;-1.11;100.00
46023;BME280;31756;47.936;16.224;2023-01-29T08:51:43;99629.34;;;-1.21;100.00
46023;BME280;31756;47.936;16.224;2023-01-29T08:54:08;99633.06;;;-1.13;100.00
46023;BME280;31756;47.936;16.224;2023-01-29T08:56:33;99636.50;;;-1.11;100.00
46023;BME280;31756;47.936;16.224;2023-01-29T08:58:59;99634.81;;;-1.10;100.00
46023;BME280;31756;47.936;16.224;2023-01-29T09:01:25;99644.25;;;-0.66;100.00
46023;BME280;31756;47.936;16.224;2023-01-29T09:03:50;99634.72;;;0.10;100.00
46023;BME280;31756;47.936;16.224;2023-01-29T09:06:17;99631.19;;;-0.37;100.00
46023;BME280;31756;47.936;16.224;2023-01-29T09:08:42;99641.91;;;-0.22;100.00
46023;BME280;31756;47.936;16.224;2023-01-29T09:11:08;99650.47;;;-0.17;100.00
46023;BME280;31756;47.936;16.224;2023-01-29T09:13:34;99649.25;;;0.37;100.00
46023;BME280;31756;47.936;16.224;2023-01-29T09:16:00;99645.81;;;-0.08;100.00
46023;BME280;31756;47.936;16.224;2023-01-29T09:18:27;99649.28;;;-0.04;100.00
46023;BME280;31756;47.936;16.224;2023-01-29T09:20:52;99653.06;;;-0.15;100.00
46023;BME280;31756;47.936;16.224;2023-01-29T09:23:18;99651.72;;;-0.28;100.00
46023;BME280;31756;47.936;16.224;2023-01-29T09:25:43;99645.84;;;0.37;100.00
46023;BME280;31756;47.936;16.224;2023-01-29T09:28:09;99646.47;;;0.09;100.00
46023;BME280;31756;47.936;16.224;2023-01-29T09:30:35;99647.97;;;0.04;100.00
46023;BME280;31756;47.936;16.224;2023-01-29T09:33:05;99632.56;;;0.41;100.00
46023;BME280;31756;47.936;16.224;2023-01-29T09:35:32;99642.63;;;0.63;100.00
46023;BME280;31756;47.936;16.224;2023-01-29T09:37:58;99638.38;;;0.62;100.00
46023;BME280;31756;47.936;16.224;2023-01-29T09:40:25;99644.13;;;0.82;100.00
46023;BME280;31756;47.936;16.224;2023-01-29T09:42:55;99648.38;;;1.07;100.00
46023;BME280;31756;47.936;16.224;2023-01-29T09:45:23;99643.88;;;0.74;100.00
46023;BME280;31756;47.936;16.224;2023-01-29T09:47:49;99647.84;;;0.91;100.00
46023;BME280;31756;47.936;16.224;2023-01-29T09:50:19;99648.72;;;0.46;100.00
46023;BME280;31756;47.936;16.224;2023-01-29T09:52:56;99641.72;;;0.17;100.00
46023;BME280;31756;47.936;16.224;2023-01-29T09:55:24;99647.84;;;0.23;100.00
46023;BME280;31756;47.936;16.224;2023-01-29T09:57:54;99640.50;;;0.74;100.00
46023;BME280;31756;47.936;16.224;2023-01-29T10:00:24;99646.41;;;0.52;100.00
46023;BME280;31756;47.936;16.224;2023-01-29T10:02:55;99635.34;;;0.26;100.00
46023;BME280;31756;47.936;16.224;2023-01-29T10:05:27;99646.19;;;0.24;100.00
46023;BME280;31756;47.936;16.224;2023-01-29T10:18:45;99641.91;;;0.00;100.00
46023;BME280;31756;47.936;16.224;2023-01-29T10:24:07;99626.09;;;-0.18;100.00
46023;BME280;31756;47.936;16.224;2023-01-29T10:26:37;99627.16;;;0.10;100.00
46023;BME280;31756;47.936;16.224;2023-01-29T10:29:05;99630.72;;;0.37;100.00
46023;BME280;31756;47.936;16.224;2023-01-29T10:31:32;99625.91;;;0.21;100.00
46023;BME280;31756;47.936;16.224;2023-01-29T10:34:11;99627.06;;;0.29;100.00
46023;BME280;31756;47.936;16.224;2023-01-29T10:36:40;99631.00;;;0.67;100.00
46023;BME280;31756;47.936;16.224;2023-01-29T10:39:15;99624.41;;;0.48;100.00
46023;BME280;31756;47.936;16.224;2023-01-29T10:46:49;99609.06;;;0.89;100.00
46023;BME280;31756;47.936;16.224;2023-01-29T10:52:03;99602.44;;;1.17;100.00
46023;BME280;31756;47.936;16.224;2023-01-29T11:00:02;99596.22;;;1.31;100.00
46023;BME280;31756;47.936;16.224;2023-01-29T11:02:34;99587.34;;;1.44;100.00
46023;BME280;31756;47.936;16.224;2023-01-29T11:04:59;99577.97;;;1.66;100.00
46023;BME280;31756;47.936;16.224;2023-01-29T11:07:25;99587.41;;;1.99;100.00
46023;BME280;31756;47.936;16.224;2023-01-29T11:09:55;99582.19;;;1.41;100.00
46023;BME280;31756;47.936;16.224;2023-01-29T11:12:22;99588.03;;;1.92;100.00
46023;BME280;31756;47.936;16.224;2023-01-29T11:17:31;99575.09;;;2.39;100.00
46023;BME280;31756;47.936;16.224;2023-01-29T11:19:57;99564.94;;;2.67;100.00
46023;BME280;31756;47.936;16.224;2023-01-29T11:25:08;99554.88;;;3.02;100.00
46023;BME280;31756;47.936;16.224;2023-01-29T11:27:41;99536.44;;;3.07;100.00
46023;BME280;31756;47.936;16.224;2023-01-29T11:30:13;99539.34;;;3.22;100.00
46023;BME280;31756;47.936;16.224;2023-01-29T11:32:39;99529.50;;;3.33;100.00
46023;BME280;31756;47.936;16.224;2023-01-29T11:37:40;99515.00;;;3.28;100.00
46023;BME280;31756;47.936;16.224;2023-01-29T11:42:52;99512.91;;;2.79;100.00
46023;BME280;31756;47.936;16.224;2023-01-29T11:47:47;99504.38;;;2.44;100.00
46023;BME280;31756;47.936;16.224;2023-01-29T11:50:18;99516.63;;;2.00;100.00
46023;BME280;31756;47.936;16.224;2023-01-29T11:52:45;99501.47;;;2.00;100.00
46023;BME280;31756;47.936;16.224;2023-01-29T11:57:40;99498.03;;;1.70;100.00
46023;BME280;31756;47.936;16.224;2023-01-29T12:02:44;99493.91;;;1.72;100.00
46023;BME280;31756;47.936;16.224;2023-01-29T12:05:18;99484.16;;;1.84;100.00
46023;BME280;31756;47.936;16.224;2023-01-29T12:07:47;99486.41;;;2.03;100.00
46023;BME280;31756;47.936;16.224;2023-01-29T12:10:32;99476.00;;;1.66;100.00
46023;BME280;31756;47.936;16.224;2023-01-29T12:15:44;99459.53;;;1.22;100.00
46023;BME280;31756;47.936;16.224;2023-01-29T12:20:40;99464.25;;;0.86;100.00
46023;BME280;31756;47.936;16.224;2023-01-29T12:23:21;99479.44;;;0.87;100.00
46023;BME280;31756;47.936;16.224;2023-01-29T12:25:50;99467.53;;;0.83;100.00
46023;BME280;31756;47.936;16.224;2023-01-29T12:33:50;99446.25;;;1.02;100.00
46023;BME280;31756;47.936;16.224;2023-01-29T12:38:54;99441.78;;;0.93;100.00
46023;BME280;31756;47.936;16.224;2023-01-29T12:41:40;99448.66;;;0.98;100.00
46023;BME280;31756;47.936;16.224;2023-01-29T12:44:18;99442.63;;;0.94;100.00
46023;BME280;31756;47.936;16.224;2023-01-29T12:46:47;99438.81;;;1.05;100.00
46023;BME280;31756;47.936;16.224;2023-01-29T12:49:16;99444.81;;;0.83;100.00
46023;BME280;31756;47.936;16.224;2023-01-29T12:54:20;99435.53;;;0.82;100.00
46023;BME280;31756;47.936;16.224;2023-01-29T12:56:52;99430.78;;;0.91;100.00
46023;BME280;31756;47.936;16.224;2023-01-29T12:59:26;99425.94;;;0.98;100.00
46023;BME280;31756;47.936;16.224;2023-01-29T13:02:01;99423.97;;;1.16;100.00
46023;BME280;31756;47.936;16.224;2023-01-29T13:04:45;99420.25;;;1.31;100.00
46023;BME280;31756;47.936;16.224;2023-01-29T13:07:16;99411.53;;;1.50;100.00
46023;BME280;31756;47.936;16.224;2023-01-29T13:09:45;99416.44;;;0.90;100.00
46023;BME280;31756;47.936;16.224;2023-01-29T13:12:14;99414.00;;;0.93;100.00
46023;BME280;31756;47.936;16.224;2023-01-29T13:14:42;99415.63;;;0.91;100.00
46023;BME280;31756;47.936;16.224;2023-01-29T13:19:55;99410.91;;;0.75;100.00
46023;BME280;31756;47.936;16.224;2023-01-29T13:22:23;99411.81;;;0.77;100.00
46023;BME280;31756;47.936;16.224;2023-01-29T13:24:50;99405.19;;;0.54;100.00
46023;BME280;31756;47.936;16.224;2023-01-29T13:27:26;99406.75;;;0.51;100.00
46023;BME280;31756;47.936;16.224;2023-01-29T13:29:53;99408.41;;;0.50;100.00
46023;BME280;31756;47.936;16.224;2023-01-29T13:32:27;99401.94;;;0.58;100.00
46023;BME280;31756;47.936;16.224;2023-01-29T13:34:54;99396.28;;;0.65;100.00
46023;BME280;31756;47.936;16.224;2023-01-29T13:37:34;99394.84;;;0.73;100.00
46023;BME280;31756;47.936;16.224;2023-01-29T13:40:01;99406.84;;;0.54;100.00
46023;BME280;31756;47.936;16.224;2023-01-29T13:45:06;99395.38;;;0.63;100.00
46023;BME280;31756;47.936;16.224;2023-01-29T13:47:36;99398.31;;;0.75;100.00
46023;BME280;31756;47.936;16.224;2023-01-29T13:52:56;99405.09;;;0.78;100.00
46023;BME280;31756;47.936;16.224;2023-01-29T13:55:27;99390.06;;;0.56;100.00
46023;BME280;31756;47.936;16.224;2023-01-29T13:57:56;99399.13;;;0.49;100.00
46023;BME280;31756;47.936;16.224;2023-01-29T14:08:49;99384.38;;;2.67;100.00
46023;BME280;31756;47.936;16.224;2023-01-29T14:11:27;99388.63;;;2.35;100.00
46023;BME280;31756;47.936;16.224;2023-01-29T14:13:36;99384.78;;;2.51;100.00
46023;BME280;31756;47.936;16.224;2023-01-29T14:18:27;99388.09;;;2.15;100.00
46023;BME280;31756;47.936;16.224;2023-01-29T14:23:26;99386.63;;;2.56;100.00
46023;BME280;31756;47.936;16.224;2023-01-29T14:25:52;99389.03;;;2.19;100.00
46023;BME280;31756;47.936;16.224;2023-01-29T14:28:22;99383.72;;;1.78;100.00
46023;BME280;31756;47.936;16.224;2023-01-29T14:30:48;99388.41;;;1.95;100.00
46023;BME280;31756;47.936;16.224;2023-01-29T14:35:58;99398.59;;;2.29;100.00
46023;BME280;31756;47.936;16.224;2023-01-29T14:38:28;99404.38;;;1.94;100.00
46023;BME280;31756;47.936;16.224;2023-01-29T14:41:02;99399.66;;;2.06;100.00
46023;BME280;31756;47.936;16.224;2023-01-29T14:43:29;99395.47;;;2.39;100.00
46023;BME280;31756;47.936;16.224;2023-01-29T14:45:55;99401.19;;;2.32;100.00
46023;BME280;31756;47.936;16.224;2023-01-29T14:48:46;99405.50;;;2.05;100.00
46023;BME280;31756;47.936;16.224;2023-01-29T14:51:15;99409.56;;;1.98;100.00
46023;BME280;31756;47.936;16.224;2023-01-29T14:58:48;99410.50;;;2.02;100.00
46023;BME280;31756;47.936;16.224;2023-01-29T15:01:24;99406.63;;;1.55;100.00
46023;BME280;31756;47.936;16.224;2023-01-29T15:06:44;99396.97;;;0.86;100.00
46023;BME280;31756;47.936;16.224;2023-01-29T15:09:12;99404.25;;;0.52;100.00
46023;BME280;31756;47.936;16.224;2023-01-29T15:11:47;99398.78;;;0.15;100.00
46023;BME280;31756;47.936;16.224;2023-01-29T15:16:47;99404.56;;;-0.35;100.00
46023;BME280;31756;47.936;16.224;2023-01-29T15:19:21;99407.44;;;-0.49;100.00
46023;BME280;31756;47.936;16.224;2023-01-29T15:22:11;99400.13;;;-0.65;100.00
46023;BME280;31756;47.936;16.224;2023-01-29T15:24:38;99408.97;;;-0.74;100.00